Lubbock Preston Smith International Airport Lubbock US
ICAO: KLBB
IATA: LBB
Category: Large
Scheduled Services: Yes

Elevation: 3282 ft
TransAlt. 18000 ft.

Airport Communications:
APP:119.2
ATIS:125.3
CLNC DEL:125.8
DEP:119.2
GND:121.9
FORT WORTH RDO:122.55
TWR:120.5
UNICOM:122.95

KLBB Zoom In..

Runways:

(A) RW 08 length 8003 ft width 150 ft
---- / hdg 81

(B) RW 17L length 2891 ft width 75 ft
---- / hdg 171

(C) RW 17R length 11500 ft width 150 ft
ILS 111.70 / hdg 171

(D) RW 26 length 8003 ft width 150 ft
ILS 111.90 / hdg 261

(E) RW 35L length 11500 ft width 150 ft
---- / hdg 351

(F) RW 35R length 2891 ft width 75 ft
---- / hdg 351

Location; KLBB
Day. 25 / Time. 09.53 Zulu
* Altimeter: 30.23
* Temperature: 07° c. 44.6°f.
* Wind from: 010° Speed 24 kn with Gusts up to 30 kn.
Dewpoint: 03° c.
Visibility: 6 Statute Miles.
Clouds: Few 2000 ft.
Clouds: Overcast 2700 ft.
Conditions: Light Rain.

KLBB 250953Z 01024G30KT 6SM -RA FEW020 OVC027 07/03 A3023 RMK AO2 PK WND 02035/0914 RAB53 SLP202 P0000 T00720028


Wind From 010°
Speed 24 kn.

  YouTube Music Video
 
jpsmedia.com for Web Design  worldairports.se 2018   terms of use